createdAt,value
2019-05-09T00:00:04.929Z,10.273438
2019-05-09T00:01:05.079Z,10.243225
2019-05-09T00:02:05.161Z,10.243225
2019-05-09T00:03:05.163Z,10.243225
2019-05-09T00:04:05.392Z,10.253296
2019-05-09T00:05:05.447Z,10.243225
2019-05-09T00:06:05.547Z,10.233154
2019-05-09T00:07:05.584Z,10.233154
2019-05-09T00:08:06.643Z,10.243225
2019-05-09T00:09:05.789Z,10.233154
2019-05-09T00:10:05.825Z,10.233154
2019-05-09T00:11:05.845Z,10.213013
2019-05-09T00:12:05.981Z,10.233154
2019-05-09T00:13:06.055Z,10.213013
2019-05-09T00:14:06.071Z,10.213013
2019-05-09T00:15:06.239Z,10.202942
2019-05-09T00:16:06.271Z,10.213013
2019-05-09T00:17:06.291Z,10.213013
2019-05-09T00:18:06.324Z,10.233154
2019-05-09T00:19:06.379Z,10.202942
2019-05-09T00:20:06.475Z,10.213013
2019-05-09T00:21:06.594Z,10.202942
2019-05-09T00:22:06.692Z,10.213013
2019-05-09T00:23:06.695Z,10.202942
2019-05-09T00:24:06.763Z,10.1828
2019-05-09T00:25:06.785Z,10.1828
2019-05-09T00:26:06.906Z,10.202942
2019-05-09T00:27:06.936Z,10.202942
2019-05-09T00:28:06.981Z,10.233154
2019-05-09T00:29:07.028Z,10.213013
2019-05-09T00:30:07.067Z,10.243225
2019-05-09T00:31:07.190Z,10.243225
2019-05-09T00:32:07.176Z,10.233154
2019-05-09T00:33:07.306Z,10.213013
2019-05-09T00:34:07.393Z,10.233154
2019-05-09T00:35:07.481Z,10.253296
2019-05-09T00:36:07.520Z,10.253296
2019-05-09T00:37:07.655Z,10.283508
2019-05-09T00:38:07.650Z,10.283508
2019-05-09T00:39:07.685Z,10.30365
2019-05-09T00:40:07.840Z,10.30365
2019-05-09T00:41:07.845Z,10.283508
2019-05-09T00:42:07.952Z,10.30365
2019-05-09T00:43:08.077Z,10.283508
2019-05-09T00:44:08.188Z,10.273438
2019-05-09T00:45:08.350Z,10.273438
2019-05-09T00:46:08.344Z,10.243225
2019-05-09T00:47:08.454Z,10.233154
2019-05-09T00:48:08.586Z,10.213013
2019-05-09T00:49:08.708Z,10.213013
2019-05-09T00:50:08.871Z,10.213013
2019-05-09T00:51:09.830Z,10.202942
2019-05-09T00:52:08.877Z,10.202942
2019-05-09T00:53:10.002Z,10.1828
2019-05-09T00:54:09.055Z,10.202942
2019-05-09T00:55:10.192Z,10.172729
2019-05-09T00:56:10.250Z,10.132446
2019-05-09T00:57:10.216Z,10.132446
2019-05-09T00:58:09.391Z,10.122375
2019-05-09T00:59:10.500Z,10.102234
2019-05-09T01:00:10.635Z,10.092163
2019-05-09T01:01:10.708Z,10.072021
2019-05-09T01:02:09.698Z,10.061951
2019-05-09T01:03:10.820Z,10.031738
2019-05-09T01:04:09.962Z,10.031738
2019-05-09T01:05:13.012Z,10.021667
2019-05-09T01:06:10.256Z,10.001526
2019-05-09T01:07:13.687Z,9.991455
2019-05-09T01:08:10.373Z,9.971313
2019-05-09T01:09:10.498Z,9.951172
2019-05-09T01:10:13.328Z,9.951172
2019-05-09T01:11:12.938Z,9.910889
2019-05-09T01:12:11.790Z,9.910889
2019-05-09T01:13:10.756Z,9.920959
2019-05-09T01:14:10.872Z,9.920959
2019-05-09T01:15:13.138Z,9.920959
2019-05-09T01:16:12.753Z,9.910889
2019-05-09T01:17:13.401Z,9.880676
2019-05-09T01:18:13.204Z,9.880676
2019-05-09T01:19:14.068Z,9.900818
2019-05-09T01:20:11.628Z,9.880676
2019-05-09T01:21:13.350Z,9.880676
2019-05-09T01:22:13.158Z,9.880676
2019-05-09T01:23:14.053Z,9.870605
2019-05-09T01:24:13.856Z,9.850464
2019-05-09T01:25:13.410Z,9.850464
2019-05-09T01:26:13.159Z,9.850464
2019-05-09T01:27:14.179Z,9.850464
2019-05-09T01:28:13.906Z,9.850464
2019-05-09T01:29:13.703Z,9.850464
2019-05-09T01:30:13.494Z,9.850464
2019-05-09T01:31:13.311Z,9.840393
2019-05-09T01:32:14.366Z,9.870605
2019-05-09T01:33:13.628Z,9.850464
2019-05-09T01:34:13.419Z,9.850464
2019-05-09T01:35:13.306Z,9.840393
2019-05-09T01:36:14.371Z,9.840393
2019-05-09T01:37:14.037Z,9.840393
2019-05-09T01:38:14.154Z,9.840393
2019-05-09T01:39:13.853Z,9.820251
2019-05-09T01:40:13.388Z,9.820251
2019-05-09T01:41:26.549Z,9.840393
2019-05-09T01:42:14.619Z,9.820251
2019-05-09T01:43:13.978Z,9.850464
2019-05-09T01:44:13.607Z,9.850464
2019-05-09T01:45:14.177Z,9.840393
2019-05-09T01:46:14.417Z,9.840393
2019-05-09T01:47:14.214Z,9.840393
2019-05-09T01:48:14.071Z,9.820251
2019-05-09T01:49:13.973Z,9.80011
2019-05-09T01:50:14.123Z,9.759827
2019-05-09T01:51:14.045Z,9.769897
2019-05-09T01:52:13.922Z,9.759827
2019-05-09T01:53:13.891Z,9.759827
2019-05-09T01:54:14.003Z,9.759827
2019-05-09T01:55:14.287Z,9.739685
2019-05-09T01:56:14.136Z,9.729614
2019-05-09T01:57:13.999Z,9.729614
2019-05-09T01:58:14.028Z,9.729614
2019-05-09T01:59:14.010Z,9.729614
2019-05-09T02:00:14.157Z,9.729614
2019-05-09T02:01:14.335Z,9.699402
2019-05-09T02:02:14.408Z,9.689331
2019-05-09T02:03:14.379Z,9.689331
2019-05-09T02:04:15.332Z,9.659119
2019-05-09T02:05:14.338Z,9.628906
2019-05-09T02:06:14.464Z,9.618835
2019-05-09T02:07:14.583Z,9.588623
2019-05-09T02:08:14.765Z,9.558411
2019-05-09T02:09:14.886Z,9.558411
2019-05-09T02:10:14.889Z,9.54834
2019-05-09T02:11:14.993Z,9.518127
2019-05-09T02:12:16.097Z,9.487915
2019-05-09T02:13:15.104Z,9.467773
2019-05-09T02:14:15.259Z,9.437561
2019-05-09T02:15:15.379Z,9.417419
2019-05-09T02:16:15.514Z,9.417419
2019-05-09T02:17:15.668Z,9.387207
2019-05-09T02:18:15.803Z,9.397278
2019-05-09T02:19:16.081Z,9.387207
2019-05-09T02:20:16.065Z,9.367065
2019-05-09T02:21:16.190Z,9.367065
2019-05-09T02:22:16.305Z,9.367065
2019-05-09T02:23:16.437Z,9.367065
2019-05-09T02:24:16.447Z,9.356995
2019-05-09T02:25:16.435Z,9.326782
2019-05-09T02:26:16.582Z,9.326782
2019-05-09T02:27:16.698Z,9.306641
2019-05-09T02:28:16.832Z,9.306641
2019-05-09T02:29:17.005Z,9.29657
2019-05-09T02:30:17.125Z,9.266357
2019-05-09T02:31:17.254Z,9.256287
2019-05-09T02:32:17.369Z,9.256287
2019-05-09T02:33:17.514Z,9.236145
2019-05-09T02:34:17.663Z,9.205933
2019-05-09T02:35:17.732Z,9.185791
2019-05-09T02:36:19.159Z,9.155579
2019-05-09T02:37:18.665Z,9.155579
2019-05-09T02:38:19.933Z,9.145508
2019-05-09T02:39:19.148Z,9.125366
2019-05-09T02:40:18.704Z,9.115295
2019-05-09T02:41:19.540Z,9.115295
2019-05-09T02:42:19.519Z,9.115295
2019-05-09T02:43:18.842Z,9.105225
2019-05-09T02:44:19.516Z,9.105225
2019-05-09T02:45:19.414Z,9.085083
2019-05-09T02:46:19.126Z,9.085083
2019-05-09T02:47:18.989Z,9.105225
2019-05-09T02:48:19.107Z,9.105225
2019-05-09T02:49:19.398Z,9.105225
2019-05-09T02:50:19.775Z,9.085083
2019-05-09T02:51:19.534Z,9.075012
2019-05-09T02:52:20.022Z,9.054871
2019-05-09T02:53:19.768Z,9.024658
2019-05-09T02:54:19.902Z,9.004517
2019-05-09T02:55:20.043Z,8.974304
2019-05-09T02:56:20.149Z,8.964233
2019-05-09T02:57:20.290Z,8.964233
2019-05-09T02:58:20.681Z,8.954163
2019-05-09T02:59:20.552Z,8.934021
2019-05-09T03:00:20.690Z,8.92395
2019-05-09T03:01:20.822Z,8.903809
2019-05-09T03:02:20.947Z,8.873596
2019-05-09T03:03:21.070Z,8.863525
2019-05-09T03:04:21.186Z,8.843384
2019-05-09T03:05:21.323Z,8.823242
2019-05-09T03:06:21.343Z,8.813171
2019-05-09T03:07:21.441Z,8.79303
2019-05-09T03:08:21.582Z,8.79303
2019-05-09T03:09:21.723Z,8.813171
2019-05-09T03:10:21.898Z,8.813171
2019-05-09T03:11:21.872Z,8.813171
2019-05-09T03:12:30.734Z,8.79303
2019-05-09T03:13:23.089Z,8.79303
2019-05-09T03:14:22.109Z,8.79303
2019-05-09T03:15:22.267Z,8.79303
2019-05-09T03:16:22.227Z,8.79303
2019-05-09T03:17:22.220Z,8.782959
2019-05-09T03:18:22.280Z,8.772888
2019-05-09T03:19:22.231Z,8.752747
2019-05-09T03:20:22.415Z,8.712463
2019-05-09T03:21:22.405Z,8.712463
2019-05-09T03:22:22.521Z,8.682251
2019-05-09T03:23:22.657Z,8.662109
2019-05-09T03:24:23.815Z,8.662109
2019-05-09T03:25:23.821Z,8.631897
2019-05-09T03:26:22.863Z,8.611755
2019-05-09T03:27:23.847Z,8.611755
2019-05-09T03:28:22.988Z,8.611755
2019-05-09T03:29:23.133Z,8.611755
2019-05-09T03:30:23.281Z,8.591614
2019-05-09T03:31:24.321Z,8.601685
2019-05-09T03:32:24.311Z,8.601685
2019-05-09T03:33:24.257Z,8.591614
2019-05-09T03:34:24.367Z,8.591614
2019-05-09T03:35:23.495Z,8.561401
2019-05-09T03:36:24.660Z,8.54126
2019-05-09T03:37:24.782Z,8.531189
2019-05-09T03:38:23.924Z,8.521118
2019-05-09T03:39:25.044Z,8.500977
2019-05-09T03:40:24.164Z,8.500977
2019-05-09T03:41:25.318Z,8.490906
2019-05-09T03:42:37.876Z,8.460693
2019-05-09T03:43:27.228Z,8.460693
2019-05-09T03:44:24.463Z,8.460693
2019-05-09T03:45:27.319Z,8.440552
2019-05-09T03:46:24.742Z,8.440552
2019-05-09T03:47:27.569Z,8.410339
2019-05-09T03:48:24.797Z,8.390198
2019-05-09T03:49:24.940Z,8.380127
2019-05-09T03:50:24.995Z,8.390198
2019-05-09T03:51:27.276Z,8.390198
2019-05-09T03:52:25.185Z,8.380127
2019-05-09T03:53:27.036Z,8.349915
2019-05-09T03:54:25.366Z,8.339844
2019-05-09T03:55:25.452Z,8.309631
2019-05-09T03:56:27.349Z,8.309631
2019-05-09T03:57:25.562Z,8.269348
2019-05-09T03:58:25.661Z,8.239136
2019-05-09T03:59:27.653Z,8.208923
2019-05-09T04:00:25.841Z,8.178711
2019-05-09T04:01:27.442Z,8.138428
2019-05-09T04:02:28.012Z,8.088074
2019-05-09T04:03:27.617Z,8.057861
2019-05-09T04:04:28.053Z,8.017578
2019-05-09T04:05:27.271Z,7.987366
2019-05-09T04:06:28.157Z,7.947083
2019-05-09T04:07:27.726Z,7.906799
2019-05-09T04:08:28.187Z,7.876587
2019-05-09T04:09:27.311Z,7.846375
2019-05-09T04:10:28.176Z,7.806091
2019-05-09T04:11:27.600Z,7.775879
2019-05-09T04:12:28.301Z,7.745667
2019-05-09T04:13:28.354Z,7.715454
2019-05-09T04:14:28.162Z,7.685242
2019-05-09T04:15:27.471Z,7.6651
2019-05-09T04:16:27.646Z,7.655029
2019-05-09T04:17:28.305Z,7.624817
2019-05-09T04:18:27.754Z,7.644958
2019-05-09T04:19:27.690Z,7.624817
2019-05-09T04:20:27.794Z,7.614746
2019-05-09T04:21:28.026Z,7.614746
2019-05-09T04:22:27.695Z,7.614746
2019-05-09T04:23:27.775Z,7.594604
2019-05-09T04:24:28.109Z,7.584534
2019-05-09T04:25:27.899Z,7.584534
2019-05-09T04:26:27.960Z,7.564392
2019-05-09T04:27:29.818Z,7.554321
2019-05-09T04:28:28.166Z,7.554321
2019-05-09T04:29:28.648Z,7.53418
2019-05-09T04:30:28.309Z,7.53418
2019-05-09T04:31:28.399Z,7.53418
2019-05-09T04:32:28.500Z,7.514038
2019-05-09T04:33:28.592Z,7.473755
2019-05-09T04:34:28.654Z,7.473755
2019-05-09T04:35:28.775Z,7.473755
2019-05-09T04:36:28.882Z,7.463684
2019-05-09T04:37:31.057Z,7.463684
2019-05-09T04:38:29.092Z,7.443542
2019-05-09T04:39:29.154Z,7.433472
2019-05-09T04:40:31.919Z,7.463684
2019-05-09T04:41:29.270Z,7.443542
2019-05-09T04:42:29.354Z,7.443542
2019-05-09T04:43:35.432Z,7.463684
2019-05-09T04:44:29.481Z,7.443542
2019-05-09T04:45:33.057Z,7.443542
2019-05-09T04:46:29.592Z,7.463684
2019-05-09T04:47:33.704Z,7.463684
2019-05-09T04:48:30.774Z,7.473755
2019-05-09T04:49:30.210Z,7.483826
2019-05-09T04:50:30.886Z,7.503967
2019-05-09T04:51:29.956Z,7.53418
2019-05-09T04:52:30.086Z,7.594604
2019-05-09T04:53:30.185Z,7.644958
2019-05-09T04:54:30.241Z,7.685242
2019-05-09T04:55:30.328Z,7.695312
2019-05-09T04:56:30.398Z,7.745667
2019-05-09T04:57:30.466Z,7.765808
2019-05-09T04:58:30.565Z,7.796021
2019-05-09T04:59:30.642Z,7.796021
2019-05-09T05:00:30.709Z,7.806091
2019-05-09T05:01:30.837Z,7.826233
2019-05-09T05:02:30.913Z,7.846375
2019-05-09T05:03:31.062Z,7.896729
2019-05-09T05:04:31.196Z,7.926941
2019-05-09T05:05:31.271Z,7.977295
2019-05-09T05:06:31.339Z,8.017578
2019-05-09T05:07:32.389Z,8.047791
2019-05-09T05:08:31.464Z,8.088074
2019-05-09T05:09:31.631Z,8.138428
2019-05-09T05:10:31.711Z,8.16864
2019-05-09T05:11:31.792Z,8.178711
2019-05-09T05:12:31.795Z,8.239136
2019-05-09T05:13:31.920Z,8.259277
2019-05-09T05:14:32.046Z,8.279419
2019-05-09T05:15:32.079Z,8.309631
2019-05-09T05:16:32.160Z,8.349915
2019-05-09T05:17:32.306Z,8.410339
2019-05-09T05:18:32.375Z,8.440552
2019-05-09T05:19:35.370Z,8.460693
2019-05-09T05:20:33.567Z,8.521118
2019-05-09T05:21:33.625Z,8.54126
2019-05-09T05:22:33.694Z,8.571472
2019-05-09T05:23:33.777Z,8.601685
2019-05-09T05:24:32.869Z,8.641968
2019-05-09T05:25:32.955Z,8.662109
2019-05-09T05:26:34.052Z,8.692322
2019-05-09T05:27:34.092Z,8.712463
2019-05-09T05:28:33.176Z,8.742676
2019-05-09T05:29:34.274Z,8.752747
2019-05-09T05:30:33.351Z,8.772888
2019-05-09T05:31:34.481Z,8.79303
2019-05-09T05:32:33.563Z,8.823242
2019-05-09T05:33:34.687Z,8.843384
2019-05-09T05:34:34.804Z,8.873596
2019-05-09T05:35:33.898Z,8.903809
2019-05-09T05:36:34.999Z,8.934021
2019-05-09T05:37:34.050Z,8.974304
2019-05-09T05:38:37.471Z,9.034729
2019-05-09T05:39:34.247Z,9.075012
2019-05-09T05:40:43.181Z,9.125366
2019-05-09T05:41:37.604Z,9.185791
2019-05-09T05:42:34.493Z,9.236145
2019-05-09T05:43:41.378Z,9.266357
2019-05-09T05:44:34.640Z,9.306641
2019-05-09T05:45:34.756Z,9.356995
2019-05-09T05:46:34.833Z,9.437561
2019-05-09T05:47:37.924Z,9.477844
2019-05-09T05:48:34.940Z,9.518127
2019-05-09T05:49:38.222Z,9.578552
2019-05-09T05:50:35.098Z,9.628906
2019-05-09T05:51:35.190Z,9.689331
2019-05-09T05:52:37.304Z,9.729614
2019-05-09T05:53:38.018Z,9.739685
2019-05-09T05:54:37.583Z,9.810181
2019-05-09T05:55:37.703Z,9.820251
2019-05-09T05:56:38.186Z,9.870605
2019-05-09T05:57:35.742Z,9.880676
2019-05-09T05:58:35.839Z,9.920959
2019-05-09T05:59:39.913Z,9.971313
2019-05-09T06:00:37.721Z,9.991455
2019-05-09T06:01:38.194Z,9.991455
2019-05-09T06:02:38.224Z,10.021667
2019-05-09T06:03:37.629Z,10.021667
2019-05-09T06:04:38.080Z,10.031738
2019-05-09T06:05:38.293Z,10.061951
2019-05-09T06:06:37.721Z,10.072021
2019-05-09T06:07:37.766Z,10.092163
2019-05-09T06:08:38.006Z,10.102234
2019-05-09T06:09:37.868Z,10.122375
2019-05-09T06:10:37.833Z,10.132446
2019-05-09T06:11:38.370Z,10.172729
2019-05-09T06:12:38.147Z,10.202942
2019-05-09T06:13:38.015Z,10.213013
2019-05-09T06:14:38.603Z,10.243225
2019-05-09T06:15:38.054Z,10.273438
2019-05-09T06:16:37.879Z,10.343933
2019-05-09T06:17:38.077Z,10.364075
2019-05-09T06:18:38.404Z,10.394287
2019-05-09T06:19:38.251Z,10.414429
2019-05-09T06:20:38.653Z,10.43457
2019-05-09T06:21:37.924Z,10.454712
2019-05-09T06:22:39.049Z,10.464783
2019-05-09T06:23:38.162Z,10.505066
2019-05-09T06:24:38.850Z,10.565491
2019-05-09T06:25:38.889Z,10.615845
2019-05-09T06:26:38.494Z,10.67627
2019-05-09T06:27:38.594Z,10.68634
2019-05-09T06:28:38.693Z,10.716553
2019-05-09T06:29:38.931Z,10.756836
2019-05-09T06:30:41.123Z,10.766907
2019-05-09T06:31:39.048Z,10.797119
2019-05-09T06:32:39.142Z,10.817261
2019-05-09T06:33:45.921Z,10.827332
2019-05-09T06:34:42.082Z,10.897827
2019-05-09T06:35:39.334Z,10.948181
2019-05-09T06:36:39.454Z,10.968323
2019-05-09T06:37:39.552Z,10.978394
2019-05-09T06:38:39.715Z,10.998535
2019-05-09T06:39:39.809Z,11.018677
2019-05-09T06:40:39.884Z,11.048889
2019-05-09T06:41:39.997Z,11.069031
2019-05-09T06:42:40.103Z,11.079102
2019-05-09T06:43:40.236Z,11.099243
2019-05-09T06:44:40.330Z,11.129456
2019-05-09T06:45:41.624Z,11.18988
2019-05-09T06:46:40.610Z,11.260376
2019-05-09T06:47:40.705Z,11.330872
2019-05-09T06:48:40.804Z,11.381226
2019-05-09T06:49:40.851Z,11.451721
2019-05-09T06:50:40.862Z,11.532288
2019-05-09T06:51:40.919Z,11.5625
2019-05-09T06:52:40.985Z,11.653137
2019-05-09T06:53:41.008Z,11.733704
2019-05-09T06:54:41.573Z,11.804199
2019-05-09T06:55:41.072Z,11.834412
2019-05-09T06:56:41.101Z,11.864624
2019-05-09T06:57:42.928Z,11.914978
2019-05-09T06:58:41.255Z,11.955261
2019-05-09T06:59:41.286Z,12.025757
2019-05-09T07:00:41.316Z,12.096252
2019-05-09T07:01:41.342Z,12.166748
2019-05-09T07:02:41.380Z,12.19696
2019-05-09T07:03:42.380Z,12.247314
2019-05-09T07:04:41.391Z,12.297668
2019-05-09T07:05:41.414Z,12.31781
2019-05-09T07:06:41.416Z,12.277527
2019-05-09T07:07:41.511Z,12.297668
2019-05-09T07:08:41.543Z,12.368164
2019-05-09T07:09:41.568Z,12.398376
2019-05-09T07:10:41.574Z,12.478943
2019-05-09T07:11:41.595Z,12.43866
2019-05-09T07:12:41.659Z,12.428589
2019-05-09T07:13:42.665Z,12.43866
2019-05-09T07:14:42.689Z,12.468872
2019-05-09T07:15:41.703Z,12.478943
2019-05-09T07:16:41.700Z,12.549438
2019-05-09T07:17:41.745Z,12.630005
2019-05-09T07:18:41.774Z,12.69043
2019-05-09T07:19:43.844Z,12.811279
2019-05-09T07:20:41.816Z,12.881775
2019-05-09T07:21:41.871Z,12.871704
2019-05-09T07:22:41.926Z,12.911987
2019-05-09T07:23:41.939Z,12.811279
2019-05-09T07:24:41.979Z,12.760925
2019-05-09T07:25:42.994Z,12.730713
2019-05-09T07:26:42.016Z,12.660217
2019-05-09T07:27:42.086Z,12.650146
2019-05-09T07:28:42.082Z,12.660217
2019-05-09T07:29:42.091Z,12.7005
2019-05-09T07:30:42.119Z,12.7005
2019-05-09T07:31:42.128Z,12.720642
2019-05-09T07:32:42.166Z,12.720642
2019-05-09T07:33:42.207Z,12.730713
2019-05-09T07:34:42.252Z,12.730713
2019-05-09T07:35:43.229Z,12.7005
2019-05-09T07:36:43.252Z,12.69043
2019-05-09T07:37:43.347Z,12.760925
2019-05-09T07:38:43.335Z,12.801208
2019-05-09T07:39:43.356Z,12.831421
2019-05-09T07:40:43.364Z,12.861633
2019-05-09T07:41:43.502Z,12.861633
2019-05-09T07:42:43.531Z,12.932129
2019-05-09T07:43:43.613Z,12.911987
2019-05-09T07:44:48.165Z,12.9422
2019-05-09T07:45:42.640Z,12.982483
2019-05-09T07:46:42.690Z,13.052979
2019-05-09T07:47:42.700Z,13.063049
2019-05-09T07:48:42.743Z,13.093262
2019-05-09T07:49:43.751Z,13.133545
2019-05-09T07:50:42.774Z,13.173828
2019-05-09T07:51:42.791Z,13.093262
2019-05-09T07:52:42.834Z,13.032837
2019-05-09T07:53:43.852Z,12.982483
2019-05-09T07:54:42.860Z,12.982483
2019-05-09T07:55:43.896Z,12.992554
2019-05-09T07:56:42.914Z,13.022766
2019-05-09T07:57:46.059Z,13.123474
2019-05-09T07:58:42.996Z,13.264465
2019-05-09T07:59:43.033Z,13.304749
2019-05-09T08:00:43.066Z,13.334961
2019-05-09T08:01:43.094Z,13.415527
2019-05-09T08:02:43.122Z,13.486023
2019-05-09T08:03:43.214Z,13.516235
2019-05-09T08:04:44.231Z,13.536377
2019-05-09T08:05:44.247Z,13.57666
2019-05-09T08:06:44.254Z,13.606873
2019-05-09T08:07:44.271Z,13.596802
2019-05-09T08:08:44.304Z,13.566589
2019-05-09T08:09:44.304Z,13.596802
2019-05-09T08:10:44.337Z,13.979492
2019-05-09T08:11:44.346Z,15.046997
2019-05-09T08:12:44.343Z,16.255493
2019-05-09T08:13:44.389Z,16.990662
2019-05-09T08:14:43.456Z,17.60498
2019-05-09T08:15:44.578Z,18.209229
2019-05-09T08:16:44.583Z,18.974609
2019-05-09T08:17:43.735Z,19.840698
2019-05-09T08:18:44.764Z,19.901123
2019-05-09T08:19:43.819Z,20.223389
2019-05-09T08:20:44.960Z,20.555725
2019-05-09T08:21:43.983Z,20.575867
2019-05-09T08:22:52.086Z,20.877991
2019-05-09T08:23:44.071Z,21.069336
2019-05-09T08:24:44.198Z,21.039124
2019-05-09T08:25:44.270Z,20.737
2019-05-09T08:26:47.550Z,19.961548
2019-05-09T08:27:44.274Z,19.286804
2019-05-09T08:28:47.730Z,18.48114
2019-05-09T08:29:44.440Z,18.088379
2019-05-09T08:30:48.123Z,17.947388
2019-05-09T08:31:45.531Z,17.745972
2019-05-09T08:32:47.889Z,17.35321
2019-05-09T08:33:45.634Z,17.161865
2019-05-09T08:34:47.995Z,17.010803
2019-05-09T08:35:49.582Z,16.769104
2019-05-09T08:36:47.717Z,16.678467
2019-05-09T08:37:44.739Z,16.577759
2019-05-09T08:38:47.713Z,16.46698
2019-05-09T08:39:44.933Z,16.406555
2019-05-09T08:40:44.972Z,16.33606
2019-05-09T08:41:48.420Z,16.436768
2019-05-09T08:42:45.101Z,16.537476
2019-05-09T08:43:48.332Z,16.547546
2019-05-09T08:44:45.475Z,16.456909
2019-05-09T08:45:45.322Z,16.436768
2019-05-09T08:46:45.332Z,16.366272
2019-05-09T08:47:45.362Z,16.164856
2019-05-09T08:48:45.367Z,16.033936
2019-05-09T08:49:47.216Z,15.943298
2019-05-09T08:50:47.802Z,15.671387
2019-05-09T08:51:54.884Z,15.520325
2019-05-09T08:52:48.150Z,15.59082
2019-05-09T08:53:47.901Z,15.510254
2019-05-09T08:54:45.705Z,15.540466
2019-05-09T08:55:47.456Z,15.751953
2019-05-09T08:56:47.585Z,15.923157
2019-05-09T08:57:47.533Z,15.762024
2019-05-09T08:58:48.150Z,15.631104
2019-05-09T08:59:49.779Z,15.782166
2019-05-09T09:00:46.085Z,15.852661
2019-05-09T09:02:10.153Z,15.83252
2019-05-09T09:02:48.166Z,15.802307
2019-05-09T09:03:48.193Z,15.600891
2019-05-09T09:04:48.492Z,15.570679
2019-05-09T09:05:48.346Z,15.540466
2019-05-09T09:06:48.099Z,15.500183
2019-05-09T09:07:48.432Z,15.409546
2019-05-09T09:08:48.239Z,15.328979
2019-05-09T09:09:48.200Z,15.167847
2019-05-09T09:10:48.754Z,15.147705
2019-05-09T09:11:47.802Z,15.167847
2019-05-09T09:12:47.675Z,15.147705
2019-05-09T09:13:48.240Z,15.137634
2019-05-09T09:14:47.771Z,15.046997
2019-05-09T09:16:04.420Z,15.067139
2019-05-09T09:16:48.035Z,15.167847
2019-05-09T09:17:49.031Z,15.228271
2019-05-09T09:18:47.981Z,15.177917
2019-05-09T09:19:47.905Z,15.147705
2019-05-09T09:20:48.475Z,15.167847
2019-05-09T09:21:49.627Z,15.147705
2019-05-09T09:22:48.072Z,15.117493
2019-05-09T09:23:50.567Z,15.147705
2019-05-09T09:24:48.122Z,15.187988
2019-05-09T09:25:48.544Z,15.288696
2019-05-09T09:26:48.116Z,15.349121
2019-05-09T09:27:50.953Z,15.369263
2019-05-09T09:28:48.405Z,15.359192
2019-05-09T09:29:48.159Z,15.258484
2019-05-09T09:30:48.736Z,15.268555
2019-05-09T09:31:48.288Z,15.328979
2019-05-09T09:32:48.051Z,15.409546
2019-05-09T09:33:48.075Z,15.510254
2019-05-09T09:34:48.550Z,15.570679
2019-05-09T09:35:48.871Z,15.59082
2019-05-09T09:36:48.157Z,15.671387
2019-05-09T09:37:52.118Z,15.782166
2019-05-09T09:38:48.298Z,15.943298
2019-05-09T09:39:49.201Z,16.064148
2019-05-09T09:40:48.236Z,15.993652
2019-05-09T09:41:48.377Z,15.96344
2019-05-09T09:42:49.085Z,16.033936
2019-05-09T09:43:48.265Z,16.064148
2019-05-09T09:44:48.268Z,16.064148
2019-05-09T09:46:05.037Z,16.033936
2019-05-09T09:46:49.584Z,16.023865
2019-05-09T09:47:48.603Z,16.054077
2019-05-09T09:48:48.626Z,16.08429
2019-05-09T09:49:49.190Z,15.993652
2019-05-09T09:50:51.254Z,15.943298
2019-05-09T09:51:48.701Z,15.96344
2019-05-09T09:52:49.202Z,15.993652
2019-05-09T09:53:49.138Z,16.08429
2019-05-09T09:54:48.684Z,16.205139
2019-05-09T09:55:48.683Z,16.174927
2019-05-09T09:56:48.688Z,16.205139
2019-05-09T09:57:48.734Z,16.245422
2019-05-09T09:58:48.731Z,16.356201
2019-05-09T09:59:48.783Z,16.436768
2019-05-09T10:00:48.834Z,16.537476
2019-05-09T10:01:49.851Z,16.507263
2019-05-09T10:02:48.927Z,16.537476
2019-05-09T10:03:48.961Z,16.507263
2019-05-09T10:04:49.956Z,16.497192
2019-05-09T10:05:48.958Z,16.507263
2019-05-09T10:06:52.712Z,16.567688
2019-05-09T10:07:49.121Z,16.537476
2019-05-09T10:08:49.161Z,16.577759
2019-05-09T10:09:49.133Z,16.567688
2019-05-09T10:10:49.116Z,16.648254
2019-05-09T10:11:49.195Z,16.728821
2019-05-09T10:12:49.477Z,16.71875
2019-05-09T10:13:52.022Z,16.648254
2019-05-09T10:14:49.256Z,16.638184
2019-05-09T10:15:49.275Z,16.567688
2019-05-09T10:16:49.254Z,16.537476
2019-05-09T10:17:49.307Z,16.396484
2019-05-09T10:18:49.344Z,16.305847
2019-05-09T10:19:49.385Z,16.245422
2019-05-09T10:20:49.493Z,16.235352
2019-05-09T10:21:49.518Z,16.396484
2019-05-09T10:22:58.293Z,16.537476
2019-05-09T10:23:50.642Z,16.648254
2019-05-09T10:24:49.641Z,16.688538
2019-05-09T10:25:49.651Z,16.728821
2019-05-09T10:26:49.674Z,16.738892
2019-05-09T10:27:49.715Z,16.71875
2019-05-09T10:28:49.779Z,16.507263
2019-05-09T10:29:49.787Z,16.456909
2019-05-09T10:30:49.810Z,16.386414
2019-05-09T10:31:49.799Z,16.245422
2019-05-09T10:32:49.834Z,16.09436
2019-05-09T10:33:49.939Z,16.054077
2019-05-09T10:34:49.899Z,15.993652
2019-05-09T10:35:50.051Z,15.993652
2019-05-09T10:36:50.073Z,15.993652
2019-05-09T10:37:51.087Z,15.923157
2019-05-09T10:38:50.108Z,15.812378
2019-05-09T10:39:50.137Z,15.782166
2019-05-09T10:40:53.072Z,15.802307
2019-05-09T10:41:50.177Z,15.84259
2019-05-09T10:42:50.183Z,15.903015
2019-05-09T10:43:50.229Z,15.923157
2019-05-09T10:44:50.244Z,16.08429
2019-05-09T10:45:50.255Z,16.396484
2019-05-09T10:46:57.045Z,16.507263
2019-05-09T10:47:50.424Z,16.487122
2019-05-09T10:48:50.459Z,16.829529
2019-05-09T10:49:50.474Z,17.927246
2019-05-09T10:50:53.718Z,18.85376
2019-05-09T10:51:51.634Z,19.377441
2019-05-09T10:52:50.642Z,19.196167
2019-05-09T10:53:50.705Z,18.944397
2019-05-09T10:54:50.722Z,18.672485
2019-05-09T10:55:50.733Z,18.209229
2019-05-09T10:56:50.741Z,17.907104
2019-05-09T10:57:52.593Z,17.574768
2019-05-09T10:58:50.835Z,17.272644
2019-05-09T10:59:50.872Z,17.071228
2019-05-09T11:00:50.887Z,16.990662
2019-05-09T11:01:50.903Z,16.940308
2019-05-09T11:02:50.896Z,16.869812
2019-05-09T11:03:50.958Z,16.829529
2019-05-09T11:04:50.964Z,16.859741
2019-05-09T11:05:50.990Z,17.161865
2019-05-09T11:06:51.027Z,17.876892
2019-05-09T11:07:51.059Z,18.73291
2019-05-09T11:08:51.119Z,19.417725
2019-05-09T11:09:52.127Z,19.891052
2019-05-09T11:10:52.128Z,19.518433
2019-05-09T11:11:52.270Z,19.10553
2019-05-09T11:12:51.442Z,18.763123
2019-05-09T11:13:51.499Z,18.642273
2019-05-09T11:14:51.537Z,18.460999
2019-05-09T11:15:51.606Z,18.309937
2019-05-09T11:17:06.646Z,18.027954
2019-05-09T11:17:52.569Z,17.796326
2019-05-09T11:18:51.578Z,17.59491
2019-05-09T11:19:51.648Z,17.322998
2019-05-09T11:20:51.658Z,17.202148
2019-05-09T11:21:51.696Z,17.131653
2019-05-09T11:22:51.752Z,17.09137
2019-05-09T11:23:51.791Z,17.041016
2019-05-09T11:24:51.882Z,17.020874
2019-05-09T11:25:51.833Z,17.020874
2019-05-09T11:26:51.846Z,17.010803
2019-05-09T11:28:05.836Z,16.910095
2019-05-09T11:28:52.974Z,16.819458
2019-05-09T11:29:52.001Z,16.759033
2019-05-09T11:30:52.011Z,16.738892
2019-05-09T11:31:52.038Z,16.769104
2019-05-09T11:32:52.037Z,16.859741
2019-05-09T11:33:52.055Z,16.829529
2019-05-09T11:34:52.194Z,16.819458